Terminal Aerodrome Forecast
Issued by NWS

Home | Current Version | Previous Version | Text Only | Print | Product List | Glossary On
Versions: 1 2 3 4 5 6 7 8 9 10 11 12 13 14 15
457
FTUS41 KBTV 272320
TAFMSS
TAF
KMSS 272320Z 2800/2824 06005KT P6SM SCT200
     FM280600 VRB03KT P6SM BKN100
     FM281200 VRB03KT P6SM VCSH BKN050 OVC070=

USA.gov is the U.S. government's official web portal to all federal, state and local government web resources and services.